createdAt,value
2022-10-08T00:01:35.026Z,68.77
2022-10-08T00:04:04.048Z,68.24
2022-10-08T00:06:34.976Z,69.12
2022-10-08T00:09:05.970Z,69.04
2022-10-08T00:11:36.060Z,69.56
2022-10-08T00:14:07.533Z,69.65
2022-10-08T00:16:38.971Z,70.13
2022-10-08T00:19:10.419Z,70.32
2022-10-08T00:21:40.259Z,69.85
2022-10-08T00:24:12.301Z,69.86
2022-10-08T00:26:43.853Z,70.10
2022-10-08T00:29:17.542Z,69.52
2022-10-08T00:31:48.568Z,69.07
2022-10-08T00:34:20.005Z,69.38
2022-10-08T00:36:52.840Z,69.63
2022-10-08T00:39:23.197Z,69.99
2022-10-08T00:41:54.113Z,69.43
2022-10-08T00:44:54.994Z,69.35
2022-10-08T00:47:43.413Z,70.28
2022-10-08T00:50:15.874Z,70.39
2022-10-08T00:52:47.697Z,69.44
2022-10-08T00:55:20.177Z,69.26
2022-10-08T00:57:48.948Z,69.33
2022-10-08T01:00:23.177Z,69.30
2022-10-08T01:02:52.549Z,69.39
2022-10-08T01:05:28.937Z,69.33
2022-10-08T01:08:03.566Z,68.84
2022-10-08T01:10:40.192Z,68.77
2022-10-08T01:13:20.793Z,68.80
2022-10-08T01:16:02.208Z,69.57
2022-10-08T01:18:38.668Z,69.01
2022-10-08T01:21:13.745Z,69.03
2022-10-08T01:24:14.552Z,68.63
2022-10-08T01:26:57.097Z,69.05
2022-10-08T01:29:31.203Z,68.68
2022-10-08T01:32:04.256Z,68.90
2022-10-08T01:34:37.830Z,69.09
2022-10-08T01:37:09.093Z,69.59
2022-10-08T01:39:40.913Z,69.05
2022-10-08T01:42:11.421Z,68.63
2022-10-08T01:44:47.210Z,68.59
2022-10-08T01:47:20.184Z,68.49
2022-10-08T01:49:54.879Z,68.44
2022-10-08T01:52:28.255Z,69.56
2022-10-08T01:55:01.432Z,68.79
2022-10-08T01:57:31.823Z,68.87
2022-10-08T02:00:04.691Z,69.08
2022-10-08T02:02:42.132Z,68.99
2022-10-08T02:05:11.344Z,68.75
2022-10-08T02:07:42.510Z,68.57
2022-10-08T02:10:13.736Z,69.00
2022-10-08T02:12:42.834Z,69.40
2022-10-08T02:15:17.066Z,68.83
2022-10-08T02:17:54.744Z,68.95
2022-10-08T02:20:29.496Z,69.25
2022-10-08T02:23:23.707Z,69.06
2022-10-08T02:25:55.893Z,69.13
2022-10-08T02:28:31.852Z,69.58
2022-10-08T02:31:07.818Z,69.11
2022-10-08T02:33:41.332Z,68.79
2022-10-08T02:36:12.802Z,69.21
2022-10-08T02:38:46.103Z,69.42
2022-10-08T02:41:16.152Z,69.06
2022-10-08T02:43:49.112Z,69.41
2022-10-08T02:46:21.636Z,68.68
2022-10-08T02:48:53.312Z,69.14
2022-10-08T02:51:21.990Z,69.47
2022-10-08T02:53:50.481Z,69.47
2022-10-08T02:56:25.830Z,69.09
2022-10-08T02:58:54.138Z,68.66
2022-10-08T03:01:30.748Z,69.01
2022-10-08T03:04:04.628Z,68.96
2022-10-08T03:06:33.694Z,69.40
2022-10-08T03:09:03.295Z,69.34
2022-10-08T03:11:32.114Z,70.18
2022-10-08T03:14:04.278Z,69.67
2022-10-08T03:16:44.053Z,70.42
2022-10-08T03:19:14.992Z,70.90
2022-10-08T03:21:44.797Z,70.53
2022-10-08T03:24:15.033Z,69.33
2022-10-08T03:26:43.373Z,68.69
2022-10-08T03:29:13.121Z,68.64
2022-10-08T03:32:56.688Z,69.08
2022-10-08T03:35:29.389Z,68.88
2022-10-08T03:37:57.489Z,68.87
2022-10-08T03:40:25.758Z,69.10
2022-10-08T03:42:53.831Z,68.92
2022-10-08T03:45:21.872Z,69.42
2022-10-08T03:47:53.306Z,69.07
2022-10-08T03:50:22.270Z,68.19
2022-10-08T03:52:51.727Z,68.27
2022-10-08T03:55:19.845Z,68.83
2022-10-08T03:57:47.998Z,68.27
2022-10-08T04:00:16.319Z,67.78
2022-10-08T04:02:44.591Z,68.09
2022-10-08T04:05:12.867Z,69.14
2022-10-08T04:07:40.929Z,68.47
2022-10-08T04:10:11.342Z,69.03
2022-10-08T04:12:39.595Z,68.38
2022-10-08T04:15:09.305Z,68.48
2022-10-08T04:17:37.703Z,67.87
2022-10-08T04:20:06.721Z,67.54
2022-10-08T04:22:35.406Z,68.12
2022-10-08T04:25:03.597Z,67.68
2022-10-08T04:27:33.339Z,68.23
2022-10-08T04:30:01.548Z,68.42
2022-10-08T04:32:30.189Z,68.44
2022-10-08T04:34:58.461Z,67.70
2022-10-08T04:37:26.875Z,67.69
2022-10-08T04:39:55.349Z,67.65
2022-10-08T04:42:23.723Z,67.85
2022-10-08T04:44:53.357Z,67.53
2022-10-08T04:47:21.549Z,67.53
2022-10-08T04:49:50.073Z,67.27
2022-10-08T04:52:24.816Z,67.34
2022-10-08T04:54:53.311Z,67.64
2022-10-08T04:57:21.609Z,67.28
2022-10-08T05:00:13.538Z,67.37
2022-10-08T05:02:39.363Z,68.23
2022-10-08T05:05:08.467Z,67.97
2022-10-08T05:07:37.045Z,68.08
2022-10-08T05:10:06.026Z,68.12
2022-10-08T05:12:34.288Z,68.41
2022-10-08T05:15:02.747Z,68.16
2022-10-08T05:17:31.094Z,67.90
2022-10-08T05:20:00.735Z,68.02
2022-10-08T05:22:29.388Z,67.83
2022-10-08T05:24:58.145Z,67.45
2022-10-08T05:27:26.569Z,67.44
2022-10-08T05:29:54.721Z,67.76
2022-10-08T05:32:23.217Z,67.40
2022-10-08T05:34:51.521Z,68.18
2022-10-08T05:37:22.036Z,67.99
2022-10-08T05:39:50.801Z,67.34
2022-10-08T05:42:19.209Z,66.89
2022-10-08T05:44:47.641Z,66.73
2022-10-08T05:47:15.696Z,66.67
2022-10-08T05:49:43.824Z,67.02
2022-10-08T05:52:17.603Z,67.07
2022-10-08T05:54:47.487Z,67.18
2022-10-08T05:57:15.823Z,67.36
2022-10-08T05:59:44.155Z,67.23
2022-10-08T06:02:12.929Z,66.94
2022-10-08T06:04:41.106Z,66.38
2022-10-08T06:07:09.424Z,66.98
2022-10-08T06:09:37.845Z,66.86
2022-10-08T06:12:08.803Z,66.73
2022-10-08T06:14:37.361Z,66.30
2022-10-08T06:17:05.975Z,66.24
2022-10-08T06:19:37.261Z,66.04
2022-10-08T06:22:06.135Z,65.67
2022-10-08T06:24:34.658Z,65.31
2022-10-08T06:27:03.341Z,65.07
2022-10-08T06:29:33.224Z,63.80
2022-10-08T06:32:02.606Z,63.12
2022-10-08T06:34:31.299Z,62.76
2022-10-08T06:37:00.940Z,62.13
2022-10-08T06:39:28.988Z,61.22
2022-10-08T06:41:57.436Z,61.38
2022-10-08T06:44:32.537Z,61.89
2022-10-08T06:47:00.798Z,61.92
2022-10-08T06:49:29.341Z,61.50
2022-10-08T06:51:57.706Z,61.20
2022-10-08T06:54:27.486Z,61.20
2022-10-08T06:56:55.820Z,62.24
2022-10-08T06:59:24.110Z,61.83
2022-10-08T07:01:53.646Z,62.33
2022-10-08T07:04:22.105Z,61.91
2022-10-08T07:06:50.521Z,61.19
2022-10-08T07:09:18.983Z,61.44
2022-10-08T07:11:47.413Z,61.89
2022-10-08T07:14:16.155Z,62.75
2022-10-08T07:16:44.370Z,63.55
2022-10-08T07:19:15.397Z,62.68
2022-10-08T07:21:43.563Z,63.39
2022-10-08T07:24:12.055Z,63.28
2022-10-08T07:26:40.562Z,62.07
2022-10-08T07:29:13.909Z,60.95
2022-10-08T07:31:42.822Z,61.06
2022-10-08T07:34:14.340Z,60.93
2022-10-08T07:36:43.480Z,60.92
2022-10-08T07:39:14.953Z,61.43
2022-10-08T07:41:43.377Z,60.58
2022-10-08T07:44:12.684Z,61.22
2022-10-08T07:46:44.837Z,63.10
2022-10-08T07:49:15.630Z,63.17
2022-10-08T07:51:44.074Z,62.58
2022-10-08T07:54:15.431Z,63.39
2022-10-08T07:56:44.227Z,62.63
2022-10-08T07:59:15.237Z,62.06
2022-10-08T08:01:44.288Z,61.60
2022-10-08T08:04:14.816Z,61.08
2022-10-08T08:06:44.918Z,61.61
2022-10-08T08:09:14.491Z,62.23
2022-10-08T08:11:42.784Z,62.60
2022-10-08T08:14:11.489Z,62.55
2022-10-08T08:16:40.423Z,62.81
2022-10-08T08:19:08.829Z,63.91
2022-10-08T08:21:40.119Z,62.98
2022-10-08T08:24:10.913Z,63.67
2022-10-08T08:26:41.028Z,62.68
2022-10-08T08:29:12.142Z,62.57
2022-10-08T08:31:43.552Z,62.57
2022-10-08T08:34:16.533Z,61.43
2022-10-08T08:36:48.917Z,61.23
2022-10-08T08:39:20.412Z,61.77
2022-10-08T08:42:16.330Z,61.47
2022-10-08T08:44:46.138Z,62.51
2022-10-08T08:47:19.720Z,63.88
2022-10-08T08:49:52.198Z,64.96
2022-10-08T08:52:25.064Z,64.19
2022-10-08T08:54:55.137Z,64.34
2022-10-08T08:57:35.269Z,64.56
2022-10-08T09:00:09.046Z,63.76
2022-10-08T09:02:41.572Z,63.53
2022-10-08T09:05:14.099Z,63.23
2022-10-08T09:07:48.232Z,62.09
2022-10-08T09:10:22.627Z,61.07
2022-10-08T09:12:58.985Z,59.58
2022-10-08T09:15:38.371Z,59.34
2022-10-08T09:18:07.130Z,58.12
2022-10-08T09:20:40.172Z,59.65
2022-10-08T09:23:16.347Z,58.56
2022-10-08T09:25:49.627Z,59.23
2022-10-08T09:28:41.551Z,57.97
2022-10-08T09:31:31.530Z,59.19
2022-10-08T09:34:05.363Z,56.88
2022-10-08T09:36:45.582Z,57.31
2022-10-08T09:39:21.950Z,57.89
2022-10-08T09:42:14.312Z,57.91
2022-10-08T09:44:44.626Z,57.94
2022-10-08T09:47:14.450Z,60.38
2022-10-08T09:49:43.525Z,60.55
2022-10-08T09:52:19.968Z,61.10
2022-10-08T09:54:53.408Z,59.97
2022-10-08T09:57:23.344Z,58.42
2022-10-08T09:59:55.241Z,56.84
2022-10-08T10:02:31.501Z,55.52
2022-10-08T10:05:02.846Z,54.85
2022-10-08T10:07:41.616Z,54.94
2022-10-08T10:10:27.509Z,52.85
2022-10-08T10:12:59.747Z,52.22
2022-10-08T10:15:33.850Z,52.40
2022-10-08T10:18:06.208Z,48.91
2022-10-08T10:20:38.830Z,48.12
2022-10-08T10:23:15.711Z,49.77
2022-10-08T10:25:49.643Z,49.28
2022-10-08T10:28:35.577Z,50.82
2022-10-08T10:31:09.538Z,50.86
2022-10-08T10:33:44.479Z,48.68
2022-10-08T10:36:17.599Z,47.00
2022-10-08T10:38:53.727Z,48.60
2022-10-08T10:41:31.431Z,49.82
2022-10-08T10:44:03.764Z,47.12
2022-10-08T10:46:38.021Z,48.33
2022-10-08T10:49:15.594Z,49.22
2022-10-08T10:52:05.234Z,52.16
2022-10-08T10:54:59.653Z,53.86
2022-10-08T10:57:41.467Z,54.81
2022-10-08T11:00:15.441Z,55.64
2022-10-08T11:02:51.621Z,57.73
2022-10-08T11:05:24.539Z,56.54
2022-10-08T11:08:12.537Z,55.43
2022-10-08T11:10:54.819Z,54.18
2022-10-08T11:13:40.748Z,52.81
2022-10-08T11:16:23.716Z,50.08
2022-10-08T11:18:55.873Z,49.32
2022-10-08T11:21:46.964Z,48.21
2022-10-08T11:24:33.792Z,49.86
2022-10-08T11:27:11.511Z,49.60
2022-10-08T11:29:51.292Z,50.48
2022-10-08T11:32:21.853Z,52.17
2022-10-08T11:34:54.522Z,52.78
2022-10-08T11:37:29.317Z,51.68
2022-10-08T11:40:05.185Z,52.26
2022-10-08T11:42:48.122Z,51.98
2022-10-08T11:45:31.909Z,51.34
2022-10-08T11:48:07.730Z,51.42
2022-10-08T11:50:51.540Z,51.76
2022-10-08T11:53:23.480Z,51.86
2022-10-08T11:55:55.407Z,50.95
2022-10-08T11:58:29.128Z,50.56
2022-10-08T12:01:06.681Z,50.69
2022-10-08T12:03:38.700Z,49.84
2022-10-08T12:06:20.679Z,47.96
2022-10-08T12:08:54.689Z,47.42
2022-10-08T12:11:52.617Z,48.68
2022-10-08T12:14:37.722Z,50.15
2022-10-08T12:17:12.953Z,48.58
2022-10-08T12:20:04.775Z,52.67
2022-10-08T12:23:00.616Z,54.51
2022-10-08T12:25:38.897Z,53.34
2022-10-08T12:28:40.218Z,53.62
2022-10-08T12:31:31.079Z,52.22
2022-10-08T12:34:13.439Z,53.04
2022-10-08T12:37:05.720Z,52.18
2022-10-08T12:39:41.955Z,52.73
2022-10-08T12:42:20.618Z,51.96
2022-10-08T12:44:59.574Z,53.17
2022-10-08T12:47:40.676Z,52.46
2022-10-08T12:50:34.070Z,53.21
2022-10-08T12:53:06.450Z,51.82
2022-10-08T12:55:39.600Z,51.81
2022-10-08T12:58:08.834Z,50.72
2022-10-08T13:00:39.767Z,49.84
2022-10-08T13:03:15.447Z,50.76
2022-10-08T13:05:47.843Z,49.64
2022-10-08T13:08:26.952Z,49.72
2022-10-08T13:10:56.646Z,49.60
2022-10-08T13:13:43.338Z,50.36
2022-10-08T13:16:16.085Z,48.75
2022-10-08T13:18:47.211Z,47.54
2022-10-08T13:21:35.051Z,48.35
2022-10-08T13:24:05.528Z,47.13
2022-10-08T13:26:43.514Z,46.76
2022-10-08T13:29:20.938Z,46.72
2022-10-08T13:31:55.432Z,46.17
2022-10-08T13:34:26.669Z,46.30
2022-10-08T13:36:59.417Z,46.58
2022-10-08T13:39:30.933Z,45.31
2022-10-08T13:42:03.522Z,45.46
2022-10-08T13:44:34.260Z,45.73
2022-10-08T13:47:03.969Z,45.59
2022-10-08T13:49:34.242Z,47.86
2022-10-08T13:52:04.339Z,47.36
2022-10-08T13:54:40.230Z,46.90
2022-10-08T13:57:11.455Z,46.87
2022-10-08T13:59:40.274Z,47.03
2022-10-08T14:02:09.587Z,47.02
2022-10-08T14:04:37.766Z,47.84
2022-10-08T14:07:16.244Z,48.29
2022-10-08T14:09:45.014Z,48.35
2022-10-08T14:12:15.007Z,48.18
2022-10-08T14:14:45.153Z,47.79
2022-10-08T14:17:14.102Z,45.85
2022-10-08T14:19:42.480Z,45.51
2022-10-08T14:22:13.485Z,47.00
2022-10-08T14:24:42.998Z,47.25
2022-10-08T14:27:12.335Z,47.49
2022-10-08T14:29:40.747Z,47.49
2022-10-08T14:32:11.840Z,47.20
2022-10-08T14:34:41.003Z,46.49
2022-10-08T14:37:12.963Z,47.59
2022-10-08T14:39:42.144Z,47.62
2022-10-08T14:42:10.995Z,46.96
2022-10-08T14:44:39.892Z,47.39
2022-10-08T14:47:10.508Z,46.62
2022-10-08T14:49:40.463Z,47.16
2022-10-08T14:52:09.507Z,47.62
2022-10-08T14:54:40.094Z,47.28
2022-10-08T14:57:08.785Z,47.16
2022-10-08T14:59:40.343Z,46.29
2022-10-08T15:02:11.873Z,46.34
2022-10-08T15:04:41.209Z,46.96
2022-10-08T15:07:10.036Z,46.99
2022-10-08T15:09:40.643Z,48.24
2022-10-08T15:12:09.506Z,48.70
2022-10-08T15:14:38.646Z,48.98
2022-10-08T15:17:07.034Z,49.25
2022-10-08T15:19:35.660Z,49.46
2022-10-08T15:22:04.492Z,48.77
2022-10-08T15:24:33.624Z,49.48
2022-10-08T15:27:03.859Z,49.00
2022-10-08T15:29:32.457Z,48.71
2022-10-08T15:32:02.682Z,49.32
2022-10-08T15:34:34.934Z,49.38
2022-10-08T15:37:03.897Z,48.65
2022-10-08T15:39:35.773Z,48.35
2022-10-08T15:42:06.146Z,48.67
2022-10-08T15:44:35.408Z,48.49
2022-10-08T15:47:07.065Z,48.76
2022-10-08T15:49:37.296Z,49.42
2022-10-08T15:52:08.232Z,50.24
2022-10-08T15:54:37.711Z,51.48
2022-10-08T15:57:08.556Z,52.50
2022-10-08T15:59:38.566Z,52.93
2022-10-08T16:02:10.741Z,54.78
2022-10-08T16:04:43.562Z,55.72
2022-10-08T16:07:12.406Z,56.72
2022-10-08T16:09:41.129Z,56.93
2022-10-08T16:12:12.305Z,57.96
2022-10-08T16:14:40.874Z,57.52
2022-10-08T16:17:09.364Z,57.86
2022-10-08T16:19:38.599Z,58.53
2022-10-08T16:22:09.470Z,58.61
2022-10-08T16:24:38.097Z,59.55
2022-10-08T16:27:07.253Z,60.25
2022-10-08T16:29:38.031Z,60.99
2022-10-08T16:32:11.482Z,61.78
2022-10-08T16:34:42.962Z,63.18
2022-10-08T16:37:13.701Z,65.23
2022-10-08T16:39:42.942Z,67.10
2022-10-08T16:42:12.196Z,67.07
2022-10-08T16:44:42.917Z,67.81
2022-10-08T16:47:12.181Z,68.14
2022-10-08T16:49:41.764Z,69.17
2022-10-08T16:52:11.667Z,68.31
2022-10-08T16:54:41.401Z,68.45
2022-10-08T16:57:09.708Z,68.71
2022-10-08T16:59:39.265Z,68.43
2022-10-08T17:02:11.820Z,68.56
2022-10-08T17:04:41.479Z,69.40
2022-10-08T17:07:10.379Z,68.66
2022-10-08T17:09:39.036Z,68.58
2022-10-08T17:12:08.009Z,69.48
2022-10-08T17:14:37.957Z,69.25
2022-10-08T17:17:07.072Z,69.31
2022-10-08T17:19:38.346Z,68.19
2022-10-08T17:22:07.699Z,67.83
2022-10-08T17:24:41.559Z,68.08
2022-10-08T17:27:14.057Z,69.10
2022-10-08T17:29:43.097Z,69.24
2022-10-08T17:32:13.597Z,68.42
2022-10-08T17:34:45.467Z,68.74
2022-10-08T17:37:13.969Z,69.02
2022-10-08T17:39:43.702Z,68.57
2022-10-08T17:42:12.213Z,68.52
2022-10-08T17:44:40.446Z,69.50
2022-10-08T17:47:09.867Z,68.79
2022-10-08T17:49:38.165Z,69.42
2022-10-08T17:52:09.439Z,70.32
2022-10-08T17:54:38.935Z,70.12
2022-10-08T17:57:07.019Z,70.66
2022-10-08T17:59:35.901Z,70.00
2022-10-08T18:02:05.919Z,70.97
2022-10-08T18:04:34.747Z,71.06
2022-10-08T18:07:03.786Z,71.19
2022-10-08T18:09:37.404Z,71.52
2022-10-08T18:12:06.273Z,70.78
2022-10-08T18:14:36.169Z,70.88
2022-10-08T18:17:04.902Z,70.69
2022-10-08T18:19:33.670Z,70.85
2022-10-08T18:22:03.470Z,70.75
2022-10-08T18:24:33.426Z,70.05
2022-10-08T18:27:04.502Z,70.14
2022-10-08T18:29:33.629Z,70.57
2022-10-08T18:32:05.111Z,71.16
2022-10-08T18:34:34.467Z,71.44
2022-10-08T18:37:04.379Z,70.75
2022-10-08T18:39:32.490Z,71.12
2022-10-08T18:42:01.018Z,71.22
2022-10-08T18:44:30.833Z,71.25
2022-10-08T18:47:03.139Z,71.41
2022-10-08T18:49:34.445Z,71.32
2022-10-08T18:52:03.991Z,72.07
2022-10-08T18:54:32.618Z,71.06
2022-10-08T18:57:01.703Z,71.57
2022-10-08T18:59:34.865Z,71.63
2022-10-08T19:02:03.327Z,71.13
2022-10-08T19:04:32.021Z,70.89
2022-10-08T19:07:01.726Z,71.45
2022-10-08T19:09:33.556Z,71.18
2022-10-08T19:12:03.876Z,71.18
2022-10-08T19:14:34.195Z,72.34
2022-10-08T19:17:03.542Z,70.97
2022-10-08T19:19:33.173Z,71.36
2022-10-08T19:22:01.884Z,71.24
2022-10-08T19:24:31.288Z,71.28
2022-10-08T19:26:59.689Z,70.23
2022-10-08T19:29:33.317Z,69.79
2022-10-08T19:32:05.645Z,69.56
2022-10-08T19:34:35.002Z,69.34
2022-10-08T19:37:05.733Z,69.67
2022-10-08T19:39:35.294Z,69.47
2022-10-08T19:42:05.093Z,69.91
2022-10-08T19:44:34.212Z,70.03
2022-10-08T19:47:04.724Z,70.09
2022-10-08T19:49:33.146Z,69.30
2022-10-08T19:52:02.366Z,69.52
2022-10-08T19:54:33.319Z,70.47
2022-10-08T19:57:03.264Z,70.23
2022-10-08T19:59:32.043Z,70.34
2022-10-08T20:02:01.097Z,69.41
2022-10-08T20:04:30.882Z,70.13
2022-10-08T20:07:01.698Z,69.97
2022-10-08T20:09:31.008Z,71.19
2022-10-08T20:11:59.495Z,71.00
2022-10-08T20:14:28.751Z,70.40
2022-10-08T20:16:58.283Z,71.14
2022-10-08T20:19:27.369Z,71.33
2022-10-08T20:21:57.022Z,71.38
2022-10-08T20:24:25.339Z,71.43
2022-10-08T20:26:54.525Z,71.66
2022-10-08T20:29:28.652Z,70.85
2022-10-08T20:31:57.573Z,71.83
2022-10-08T20:34:31.130Z,71.51
2022-10-08T20:37:02.795Z,71.93
2022-10-08T20:39:32.119Z,71.99
2022-10-08T20:42:00.596Z,71.56
2022-10-08T20:44:28.920Z,71.99
2022-10-08T20:46:57.267Z,71.65
2022-10-08T20:49:26.112Z,71.88
2022-10-08T20:51:54.387Z,72.44
2022-10-08T20:54:24.354Z,71.93
2022-10-08T20:56:53.390Z,71.65
2022-10-08T20:59:23.447Z,72.81
2022-10-08T21:01:53.048Z,72.76
2022-10-08T21:04:22.534Z,72.86
2022-10-08T21:06:52.365Z,72.65
2022-10-08T21:09:23.063Z,72.47
2022-10-08T21:11:53.883Z,72.19
2022-10-08T21:14:23.610Z,71.84
2022-10-08T21:16:53.568Z,71.95
2022-10-08T21:19:23.606Z,72.07
2022-10-08T21:21:53.160Z,71.62
2022-10-08T21:24:23.900Z,71.62
2022-10-08T21:26:52.134Z,71.17
2022-10-08T21:29:20.678Z,71.21
2022-10-08T21:31:49.562Z,70.70
2022-10-08T21:34:18.766Z,71.35
2022-10-08T21:36:47.586Z,70.71
2022-10-08T21:39:18.168Z,71.12
2022-10-08T21:41:47.913Z,71.15
2022-10-08T21:44:16.942Z,71.23
2022-10-08T21:46:46.273Z,71.38
2022-10-08T21:49:17.139Z,70.47
2022-10-08T21:51:46.589Z,70.35
2022-10-08T21:54:17.175Z,70.98
2022-10-08T21:56:47.675Z,70.13
2022-10-08T21:59:17.147Z,70.00
2022-10-08T22:01:47.850Z,69.98
2022-10-08T22:04:19.157Z,70.12
2022-10-08T22:06:49.571Z,69.70
2022-10-08T22:09:20.183Z,70.18
2022-10-08T22:11:49.723Z,70.25
2022-10-08T22:14:18.698Z,70.16
2022-10-08T22:16:47.519Z,70.31
2022-10-08T22:19:17.037Z,70.19
2022-10-08T22:21:45.670Z,69.85
2022-10-08T22:24:13.904Z,69.86
2022-10-08T22:26:44.417Z,69.80
2022-10-08T22:29:14.556Z,69.79
2022-10-08T22:31:43.613Z,69.84
2022-10-08T22:34:12.073Z,69.43
2022-10-08T22:36:42.830Z,70.39
2022-10-08T22:39:11.844Z,69.98
2022-10-08T22:41:40.072Z,70.06
2022-10-08T22:44:08.271Z,69.60
2022-10-08T22:46:39.758Z,69.10
2022-10-08T22:49:10.275Z,68.99
2022-10-08T22:51:38.858Z,69.03
2022-10-08T22:54:07.198Z,69.04
2022-10-08T22:56:36.145Z,69.12
2022-10-08T22:59:04.795Z,69.52
2022-10-08T23:01:32.991Z,69.06
2022-10-08T23:04:03.240Z,68.64
2022-10-08T23:06:33.546Z,68.90
2022-10-08T23:09:03.971Z,68.66
2022-10-08T23:11:32.974Z,68.47
2022-10-08T23:14:02.261Z,68.81
2022-10-08T23:16:32.270Z,68.50
2022-10-08T23:19:04.657Z,68.65
2022-10-08T23:21:32.884Z,68.17
2022-10-08T23:24:01.221Z,67.94
2022-10-08T23:26:29.816Z,68.51
2022-10-08T23:28:59.732Z,69.08
2022-10-08T23:31:30.483Z,69.38
2022-10-08T23:33:59.408Z,69.50
2022-10-08T23:36:31.833Z,69.24
2022-10-08T23:39:00.272Z,69.64
2022-10-08T23:41:29.518Z,68.80
2022-10-08T23:43:59.166Z,69.09
2022-10-08T23:46:29.348Z,68.99
2022-10-08T23:48:59.004Z,69.22
2022-10-08T23:51:31.606Z,69.56
2022-10-08T23:54:01.141Z,68.83
2022-10-08T23:56:29.587Z,68.84
2022-10-08T23:58:57.880Z,68.40
